.
WxDataArchive / Data Records for 2008-07-06
2008-07-05 July 2008 2008-07-07

Data Records for Sunday, 06 July 2008

Time	Temp	Chill	HIndex	Humid	Dewpt	 Wind 	HiWind	WindDir	Rain 	Barom 
-----	----	-----	------	-----	-----	------	------	-------	-----	----- 
00:00	62.1	62.1	62.1	72	53.0	0	1	90	0.00	29.964 
00:05	62.1	62.1	62.1	72	53.0	0	0	---	0.00	29.967 
00:10	62.1	62.1	62.1	72	53.0	0	1	90	0.00	29.965 
00:15	62.1	62.1	62.1	72	53.0	0	1	90	0.00	29.963 
00:20	62.1	62.1	62.1	72	53.0	0	0	---	0.00	29.963 
00:25	62.0	62.0	62.0	73	53.2	0	0	---	0.00	29.960 
00:30	61.8	61.8	61.8	73	53.0	0	1	90	0.00	29.959 
00:35	61.6	61.6	61.6	73	52.9	0	1	90	0.00	29.960 
00:40	61.6	61.6	61.6	73	52.9	0	0	---	0.00	29.963 
00:45	61.3	61.3	61.3	74	52.9	0	0	---	0.00	29.961 
00:50	61.0	61.0	61.0	75	53.0	0	0	---	0.00	29.961 
00:55	60.9	60.9	60.9	75	52.9	0	1	90	0.00	29.964 
01:00	60.7	60.7	60.7	76	53.1	0	0	---	0.00	29.969 
01:05	60.4	60.4	60.4	76	52.8	0	0	---	0.00	29.968 
01:10	60.2	60.2	60.2	76	52.6	0	0	---	0.00	29.970 
01:15	59.9	59.9	59.9	78	53.0	0	0	---	0.00	29.971 
01:20	59.6	59.6	59.6	78	52.7	0	0	---	0.00	29.972 
01:25	59.5	59.5	59.5	79	53.0	0	0	---	0.00	29.971 
01:30	59.3	59.3	59.3	80	53.1	0	0	---	0.00	29.972 
01:35	59.2	59.2	59.2	80	53.0	0	0	---	0.00	29.972 
01:40	59.0	59.0	59.0	81	53.2	0	0	---	0.00	29.972 
01:45	58.9	58.9	58.9	82	53.4	0	0	---	0.00	29.972 
01:50	58.9	58.9	58.9	82	53.4	0	0	---	0.00	29.972 
01:55	58.7	58.7	58.7	82	53.2	0	0	---	0.00	29.972 
02:00	58.6	58.6	58.6	83	53.4	0	0	---	0.00	29.972 
02:05	58.4	58.4	58.4	83	53.3	0	0	---	0.00	29.973 
02:10	58.3	58.3	58.3	83	53.2	0	0	---	0.00	29.971 
02:15	58.1	58.1	58.1	84	53.3	0	0	---	0.00	29.970 
02:20	58.1	58.1	58.1	85	53.6	0	0	---	0.00	29.971 
02:25	58.0	58.0	58.0	85	53.5	0	0	---	0.00	29.972 
02:30	57.8	57.8	57.8	86	53.6	0	0	---	0.00	29.968 
02:35	57.6	57.6	57.6	86	53.4	0	0	---	0.00	29.967 
02:40	57.6	57.6	57.6	86	53.4	0	0	---	0.00	29.968 
02:45	57.5	57.5	57.5	87	53.7	0	0	---	0.00	29.965 
02:50	57.3	57.3	57.3	87	53.5	0	0	---	0.00	29.964 
02:55	57.3	57.3	57.3	87	53.5	0	0	---	0.00	29.960 
03:00	57.2	57.2	57.2	87	53.4	0	0	---	0.00	29.959 
03:05	57.0	57.0	57.0	88	53.5	0	0	---	0.00	29.957 
03:10	56.9	56.9	56.9	88	53.4	0	0	---	0.00	29.957 
03:15	56.9	56.9	56.9	89	53.7	0	0	---	0.00	29.959 
03:20	56.7	56.7	56.7	89	53.5	0	0	---	0.00	29.963 
03:25	56.6	56.6	56.6	89	53.4	0	0	---	0.00	29.967 
03:30	56.6	56.6	56.6	89	53.4	0	0	---	0.00	29.967 
03:35	56.6	56.6	56.6	90	53.7	0	0	---	0.00	29.968 
03:40	56.5	56.5	56.5	90	53.6	0	0	---	0.00	29.964 
03:45	56.5	56.5	56.5	90	53.6	0	0	---	0.00	29.961 
03:50	56.5	56.5	56.5	90	53.6	0	0	---	0.00	29.961 
03:55	56.3	56.3	56.3	90	53.4	0	0	---	0.00	29.963 
04:00	56.3	56.3	56.3	90	53.4	0	0	---	0.00	29.963 
04:05	56.3	56.3	56.3	91	53.7	0	0	---	0.00	29.964 
04:10	56.2	56.2	56.2	91	53.6	0	0	---	0.00	29.964 
04:15	56.2	56.2	56.2	91	53.6	0	0	---	0.00	29.966 
04:20	56.0	56.0	56.0	91	53.4	0	0	---	0.00	29.966 
04:25	56.0	56.0	56.0	92	53.7	0	0	---	0.00	29.964 
04:30	55.9	55.9	55.9	92	53.6	0	0	---	0.00	29.962 
04:35	55.9	55.9	55.9	92	53.6	0	0	---	0.00	29.962 
04:40	55.7	55.7	55.7	92	53.4	0	0	---	0.00	29.962 
04:45	55.7	55.7	55.7	92	53.4	0	0	---	0.00	29.962 
04:50	55.6	55.6	55.6	92	53.3	0	0	---	0.00	29.963 
04:55	55.6	55.6	55.6	92	53.3	0	0	---	0.00	29.962 
05:00	55.4	55.4	55.4	92	53.1	0	0	---	0.00	29.961 
05:05	55.4	55.4	55.4	92	53.1	0	0	---	0.00	29.960 
05:10	55.3	55.3	55.3	92	53.0	0	0	---	0.00	29.961 
05:15	55.3	55.3	55.3	92	53.0	0	0	---	0.00	29.959 
05:20	55.3	55.3	55.3	93	53.3	0	0	---	0.00	29.961 
05:25	55.3	55.3	55.3	93	53.3	0	0	---	0.00	29.961 
05:30	55.3	55.3	55.3	93	53.3	0	0	---	0.00	29.963 
05:35	55.3	55.3	55.3	93	53.3	0	0	---	0.00	29.964 
05:40	55.1	55.1	55.1	93	53.1	0	0	---	0.00	29.963 
05:45	55.3	55.3	55.3	93	53.3	0	0	---	0.00	29.964 
05:50	55.3	55.3	55.3	93	53.3	0	0	---	0.00	29.964 
05:55	55.4	55.4	55.4	93	53.4	0	0	---	0.00	29.965 
06:00	55.7	55.7	55.7	94	54.0	0	0	---	0.00	29.967 
06:05	55.9	55.9	55.9	94	54.2	0	0	---	0.00	29.970 
06:10	56.3	56.3	56.3	94	54.6	0	0	---	0.00	29.971 
06:15	56.5	56.5	56.5	94	54.8	0	0	---	0.00	29.970 
06:20	56.9	56.9	56.9	94	55.2	0	2	90	0.00	29.970 
06:25	57.5	57.5	57.5	93	55.5	0	0	---	0.00	29.972 
06:30	58.3	58.3	58.3	92	56.0	0	1	90	0.00	29.971 
06:35	59.3	59.3	59.3	86	55.1	0	2	90	0.00	29.970 
06:40	60.2	60.2	60.2	81	54.3	1	3	90	0.00	29.966 
06:45	61.2	61.2	61.2	79	54.6	1	3	90	0.00	29.966 
06:50	62.1	62.1	62.1	76	54.4	1	2	90	0.00	29.968 
06:55	62.7	62.7	62.7	74	54.3	1	3	90	0.00	29.965 
07:00	63.5	63.5	63.5	74	55.1	0	1	90	0.00	29.965 
07:05	64.3	64.3	64.3	71	54.7	0	1	90	0.00	29.970 
07:10	65.0	65.0	65.0	69	54.6	0	2	90	0.00	29.971 
07:15	65.5	65.5	65.5	70	55.4	0	2	90	0.00	29.970 
07:20	65.8	65.8	65.8	68	54.9	1	3	90	0.00	29.968 
07:25	66.0	66.0	66.0	69	55.5	1	3	90	0.00	29.966 
07:30	66.3	66.3	66.3	69	55.8	1	3	90	0.00	29.968 
07:35	66.6	66.6	66.6	67	55.3	1	2	90	0.00	29.971 
07:40	67.3	67.3	67.3	66	55.5	0	2	90	0.00	29.972 
07:45	67.8	67.8	67.8	67	56.4	1	3	90	0.00	29.968 
07:50	67.6	67.6	67.6	68	56.7	1	3	90	0.00	29.970 
07:55	67.8	67.8	67.8	66	56.0	0	2	90	0.00	29.970 
08:00	67.9	67.9	67.9	68	56.9	1	5	112	0.00	29.970 
08:05	67.8	67.8	67.8	66	56.0	2	5	90	0.00	29.973 
08:10	68.4	68.4	68.4	67	57.0	0	2	158	0.00	29.972 
08:15	69.1	69.1	69.1	65	56.8	1	3	158	0.00	29.972 
08:20	69.4	69.4	69.4	66	57.5	1	3	90	0.00	29.972 
08:25	69.9	69.9	69.9	64	57.2	1	3	90	0.00	29.970 
08:30	70.6	70.6	70.6	65	58.2	1	3	90	0.00	29.971 
08:35	71.5	71.5	71.5	61	57.3	1	4	90	0.00	29.972 
08:40	71.8	71.8	71.8	61	57.6	2	4	112	0.00	29.970 
08:45	72.3	72.3	72.3	61	58.1	1	2	112	0.00	29.971 
08:50	72.8	72.8	72.8	61	58.6	1	2	112	0.00	29.970 
08:55	73.3	73.3	73.3	60	58.6	1	3	112	0.00	29.970 
09:00	74.0	74.0	74.0	58	58.3	1	4	112	0.00	29.968 
09:05	74.2	74.2	74.2	56	57.5	2	4	112	0.00	29.971 
09:10	74.7	74.7	74.7	56	57.9	1	3	135	0.00	29.969 
09:15	75.1	75.1	77.6	55	57.8	1	3	135	0.00	29.970 
09:20	75.4	75.4	77.8	54	57.6	2	4	112	0.00	29.967 
09:25	75.6	75.6	77.9	53	57.2	1	3	112	0.00	29.969 
09:30	75.6	75.6	77.9	53	57.2	2	5	112	0.00	29.968 
09:35	75.6	75.6	77.8	55	58.3	2	4	112	0.00	29.968 
09:40	75.6	75.6	77.9	54	57.8	2	5	112	0.00	29.969 
09:45	75.8	75.8	78.0	54	57.9	2	5	90	0.00	29.969 
09:50	75.8	75.8	78.0	54	57.9	3	6	90	0.00	29.966 
09:55	76.1	76.1	78.1	55	58.7	1	4	90	0.00	29.969 
10:00	76.8	76.8	78.6	54	58.9	1	4	135	0.00	29.966 
10:05	77.4	77.4	78.9	53	58.9	1	4	112	0.00	29.969 
10:10	77.6	77.6	79.1	54	59.6	2	4	112	0.00	29.970 
10:15	77.2	77.2	78.8	54	59.2	2	4	90	0.00	29.970 
10:20	77.2	77.2	78.9	55	59.8	1	3	90	0.00	29.970 
10:25	77.7	77.7	79.2	53	59.2	1	3	90	0.00	29.970 
10:30	78.1	78.1	79.5	53	59.6	1	3	112	0.00	29.973 
10:35	78.5	78.5	79.8	54	60.4	1	3	112	0.00	29.974 
10:40	78.8	78.8	79.9	51	59.1	1	4	112	0.00	29.971 
10:45	78.8	78.8	79.8	50	58.6	1	4	90	0.00	29.972 
10:50	79.2	79.2	80.3	52	60.0	1	3	90	0.00	29.972 
10:55	79.2	79.2	80.2	51	59.5	2	4	90	0.00	29.969 
11:00	79.4	79.4	80.4	51	59.7	1	4	112	0.00	29.969 
11:05	79.8	79.8	80.8	52	60.6	1	3	112	0.00	29.968 
11:10	79.9	79.9	80.7	50	59.6	1	3	90	0.00	29.967 
11:15	79.6	79.6	80.5	51	59.9	1	3	90	0.00	29.967 
11:20	80.3	80.3	81.5	54	62.1	0	2	68	0.00	29.966 
11:25	80.7	80.7	81.4	50	60.3	1	4	90	0.00	29.965 
11:30	80.9	80.9	81.9	52	61.6	1	7	90	0.00	29.961 
11:35	80.7	80.7	81.3	49	59.7	2	5	90	0.00	29.963 
11:40	80.3	80.3	81.3	52	61.0	1	3	90	0.00	29.962 
11:45	80.7	80.7	81.6	51	60.9	1	4	112	0.00	29.962 
11:50	81.1	81.1	81.8	50	60.7	1	3	112	0.00	29.962 
11:55	81.1	81.1	82.0	51	61.2	1	4	112	0.00	29.958 
12:00	81.4	81.4	82.3	51	61.5	1	2	112	0.00	29.958 
12:05	82.0	82.0	83.4	54	63.7	1	4	90	0.00	29.958 
12:10	82.2	82.2	83.3	52	62.8	1	3	90	0.00	29.959 
12:15	82.4	82.4	83.2	50	61.9	1	2	90	0.00	29.955 
12:20	82.6	82.6	83.3	49	61.5	1	2	112	0.00	29.954 
12:25	82.8	82.8	83.5	49	61.7	1	5	270	0.00	29.952 
12:30	82.8	82.8	83.5	49	61.7	1	3	90	0.00	29.952 
12:35	82.6	82.6	83.6	51	62.6	2	5	112	0.00	29.952 
12:40	82.0	82.0	83.2	53	63.2	2	4	112	0.00	29.955 
12:45	82.0	82.0	82.6	49	60.9	1	5	90	0.00	29.957 
12:50	81.8	81.8	83.3	55	64.0	2	5	90	0.00	29.954 
12:55	82.0	82.0	83.2	53	63.2	1	4	90	0.00	29.953 
13:00	82.4	82.4	83.7	53	63.5	2	4	90	0.00	29.954 
13:05	82.6	82.6	83.3	49	61.5	1	6	90	0.00	29.955 
13:10	82.8	82.8	83.8	51	62.8	1	4	90	0.00	29.955 
13:15	83.6	83.6	84.4	49	62.4	2	6	90	0.00	29.952 
13:20	84.0	84.0	84.7	48	62.2	1	4	248	0.00	29.952 
13:25	84.0	84.0	84.5	47	61.6	2	9	90	0.00	29.952 
13:30	83.8	83.8	84.9	50	63.1	1	4	90	0.00	29.949 
13:35	83.8	83.8	84.5	48	62.0	1	3	90	0.00	29.951 
13:40	83.6	83.6	84.6	50	63.0	1	4	292	0.00	29.949 
13:45	83.8	83.8	84.9	50	63.1	1	4	112	0.00	29.943 
13:50	84.0	84.0	84.7	48	62.2	1	4	248	0.00	29.940 
13:55	84.1	84.1	84.6	47	61.7	2	6	90	0.00	29.939 
14:00	84.0	84.0	84.9	49	62.8	1	4	112	0.00	29.937 
14:05	83.4	83.4	83.8	47	61.0	3	10	90	0.00	29.938 
14:10	83.4	83.4	84.2	49	62.2	1	3	68	0.00	29.936 
14:15	83.6	83.6	84.4	49	62.4	3	7	112	0.00	29.933 
14:20	84.0	84.0	84.7	48	62.2	2	5	90	0.00	29.933 
14:25	84.3	84.3	85.5	50	63.6	1	3	90	0.00	29.932 
14:30	84.5	84.5	84.9	46	61.4	2	5	90	0.00	29.930 
14:35	84.5	84.5	85.3	48	62.6	1	5	90	0.00	29.930 
14:40	84.9	84.9	85.6	47	62.4	1	5	112	0.00	29.927 
14:45	85.1	85.1	85.4	45	61.3	2	5	90	0.00	29.927 
14:50	85.1	85.1	85.7	46	62.0	1	3	90	0.00	29.923 
14:55	85.3	85.3	85.9	46	62.1	1	6	315	0.00	29.921 
15:00	85.1	85.1	85.4	45	61.3	2	4	90	0.00	29.922 
15:05	85.1	85.1	85.7	46	62.0	2	6	112	0.00	29.923 
15:10	85.3	85.3	85.5	44	60.9	1	3	112	0.00	29.922 
15:15	85.3	85.3	85.9	46	62.1	1	3	90	0.00	29.922 
15:20	85.3	85.3	85.9	46	62.1	1	5	112	0.00	29.920 
15:25	85.1	85.1	85.4	45	61.3	2	6	90	0.00	29.923 
15:30	84.7	84.7	85.6	48	62.8	2	6	90	0.00	29.921 
15:35	84.7	84.7	85.4	47	62.2	1	3	248	0.00	29.921 
15:40	84.9	84.9	85.8	48	63.0	1	5	90	0.00	29.921 
15:45	85.1	85.1	85.9	47	62.6	1	4	112	0.00	29.921 
15:50	85.1	85.1	85.7	46	62.0	1	4	90	0.00	29.919 
15:55	84.9	84.9	85.2	45	61.2	3	6	90	0.00	29.914 
16:00	84.9	84.9	85.6	47	62.4	2	4	112	0.00	29.913 
16:05	85.1	85.1	85.4	45	61.3	1	3	112	0.00	29.918 
16:10	85.3	85.3	86.9	50	64.5	1	3	112	0.00	29.916 
16:15	85.1	85.1	86.1	48	63.2	1	3	112	0.00	29.914 
16:20	85.3	85.3	85.9	46	62.1	1	2	112	0.00	29.915 
16:25	84.9	84.9	85.4	46	61.8	2	7	112	0.00	29.914 
16:30	84.7	84.7	85.8	49	63.4	1	5	90	0.00	29.914 
16:35	84.7	84.7	86.0	50	64.0	1	3	90	0.00	29.914 
16:40	84.7	84.7	85.6	48	62.8	1	5	90	0.00	29.910 
16:45	84.7	84.7	85.8	49	63.4	1	4	248	0.00	29.909 
16:50	84.7	84.7	85.4	47	62.2	2	6	90	0.00	29.907 
16:55	84.5	84.5	85.8	50	63.8	1	4	68	0.00	29.906 
17:00	84.5	84.5	85.6	49	63.2	1	2	90	0.00	29.906 
17:05	84.1	84.1	85.0	49	62.8	2	9	112	0.00	29.907 
17:10	83.8	83.8	84.9	50	63.1	1	4	112	0.00	29.906 
17:15	83.8	83.8	85.3	52	64.3	1	3	112	0.00	29.906 
17:20	83.6	83.6	84.6	50	63.0	0	2	90	0.00	29.904 
17:25	83.6	83.6	84.6	50	63.0	1	3	90	0.00	29.902 
17:30	83.4	83.4	84.4	50	62.8	2	4	112	0.00	29.904 
17:35	83.4	83.4	84.4	50	62.8	0	1	112	0.00	29.904 
17:40	83.2	83.2	84.1	50	62.6	1	4	112	0.00	29.904 
17:45	83.0	83.0	83.9	50	62.4	1	3	315	0.00	29.899 
17:50	83.0	83.0	84.1	51	63.0	1	3	292	0.00	29.898 
17:55	83.0	83.0	84.1	51	63.0	1	5	45	0.00	29.897 
18:00	83.0	83.0	84.1	51	63.0	0	4	90	0.00	29.897 
18:05	83.0	83.0	84.3	52	63.5	0	3	90	0.00	29.895 
18:10	83.0	83.0	83.9	50	62.4	1	3	292	0.00	29.894 
18:15	83.0	83.0	84.3	52	63.5	0	1	292	0.00	29.893 
18:20	82.6	82.6	83.8	52	63.2	0	3	270	0.00	29.891 
18:25	82.4	82.4	83.5	52	63.0	0	1	270	0.00	29.890 
18:30	82.4	82.4	83.7	53	63.5	0	1	270	0.00	29.888 
18:35	82.4	82.4	83.5	52	63.0	0	2	270	0.00	29.888 
18:40	82.4	82.4	83.9	54	64.1	0	1	270	0.00	29.889 
18:45	82.2	82.2	83.5	53	63.3	0	1	270	0.00	29.889 
18:50	82.0	82.0	83.4	54	63.7	0	1	270	0.00	29.889 
18:55	81.8	81.8	83.2	54	63.5	1	3	270	0.00	29.889 
19:00	81.6	81.6	83.1	55	63.8	0	3	315	0.00	29.887 
19:05	81.4	81.4	83.0	56	64.2	0	1	315	0.00	29.886 
19:10	81.2	81.2	82.7	56	64.0	0	1	315	0.00	29.887 
19:15	80.9	80.9	82.5	57	64.2	0	1	315	0.00	29.886 
19:20	80.7	80.7	82.3	57	64.0	0	1	315	0.00	29.887 
19:25	80.5	80.5	82.2	58	64.3	0	0	---	0.00	29.886 
19:30	80.3	80.3	81.9	58	64.2	0	0	---	0.00	29.885 
19:35	80.1	80.1	81.7	58	64.0	0	1	315	0.00	29.884 
19:40	80.1	80.1	81.7	58	64.0	0	1	315	0.00	29.884 
19:45	79.9	79.9	81.5	58	63.8	0	1	315	0.00	29.883 
19:50	79.8	79.8	81.4	58	63.7	0	2	315	0.00	29.884 
19:55	79.8	79.8	81.5	59	64.2	0	1	0	0.00	29.884 
20:00	79.6	79.6	81.3	60	64.5	0	0	---	0.00	29.885 
20:05	79.0	79.0	80.8	61	64.4	0	0	---	0.00	29.882 
20:10	78.6	78.6	80.4	62	64.5	0	0	---	0.00	29.882 
20:15	78.3	78.3	80.1	63	64.6	0	0	---	0.00	29.883 
20:20	77.7	77.7	79.5	64	64.5	0	0	---	0.00	29.886 
20:25	77.2	77.2	79.0	65	64.5	0	0	---	0.00	29.888 
20:30	76.7	76.7	78.5	66	64.5	0	0	---	0.00	29.885 
20:35	76.5	76.5	78.3	66	64.3	0	0	---	0.00	29.884 
20:40	76.1	76.1	77.9	67	64.3	0	0	---	0.00	29.885 
20:45	75.8	75.8	77.6	68	64.5	0	0	---	0.00	29.886 
20:50	75.3	75.3	77.0	69	64.4	0	0	---	0.00	29.886 
20:55	74.9	74.9	74.9	70	64.4	0	0	---	0.00	29.887 
21:00	74.7	74.7	74.7	71	64.7	0	0	---	0.00	29.889 
21:05	74.4	74.4	74.4	72	64.8	0	1	0	0.00	29.882 
21:10	74.2	74.2	74.2	72	64.6	0	1	0	0.00	29.885 
21:15	74.2	74.2	74.2	72	64.6	0	0	---	0.00	29.889 
21:20	74.0	74.0	74.0	73	64.8	0	0	---	0.00	29.889 
21:25	73.9	73.9	73.9	73	64.7	0	0	---	0.00	29.891 
21:30	73.9	73.9	73.9	74	65.1	0	0	---	0.00	29.893 
21:35	73.7	73.7	73.7	74	64.9	0	0	---	0.00	29.895 
21:40	73.5	73.5	73.5	75	65.1	0	0	---	0.00	29.896 
21:45	73.3	73.3	73.3	76	65.3	0	0	---	0.00	29.895 
21:50	73.0	73.0	73.0	77	65.3	0	0	---	0.00	29.897 
21:55	73.0	73.0	73.0	77	65.3	0	0	---	0.00	29.898 
22:00	72.8	72.8	72.8	78	65.5	0	0	---	0.00	29.899 
22:05	72.7	72.7	72.7	78	65.4	0	0	---	0.00	29.898 
22:10	72.7	72.7	72.7	78	65.4	0	0	---	0.00	29.899 
22:15	72.7	72.7	72.7	78	65.4	0	0	---	0.00	29.900 
22:20	72.5	72.5	72.5	78	65.2	0	0	---	0.00	29.902 
22:25	72.3	72.3	72.3	79	65.4	0	0	---	0.00	29.906 
22:30	72.3	72.3	72.3	79	65.4	0	0	---	0.00	29.913 
22:35	72.1	72.1	72.1	79	65.2	0	0	---	0.00	29.914 
22:40	72.0	72.0	72.0	80	65.5	0	0	---	0.00	29.914 
22:45	72.0	72.0	72.0	80	65.5	0	0	---	0.00	29.916 
22:50	71.8	71.8	71.8	80	65.3	0	0	---	0.00	29.916 
22:55	71.6	71.6	71.6	80	65.1	0	0	---	0.00	29.919 
23:00	71.5	71.5	71.5	81	65.4	0	0	---	0.00	29.921 
23:05	71.3	71.3	71.3	81	65.2	0	0	---	0.00	29.920 
23:10	71.1	71.1	71.1	82	65.3	0	0	---	0.00	29.919 
23:15	70.9	70.9	70.9	82	65.1	0	0	---	0.00	29.922 
23:20	70.8	70.8	70.8	82	65.0	0	0	---	0.00	29.927 
23:25	70.8	70.8	70.8	83	65.4	0	0	---	0.00	29.928 
23:30	70.6	70.6	70.6	83	65.2	0	0	---	0.00	29.928 
23:35	70.4	70.4	70.4	83	65.0	0	0	---	0.00	29.929 
23:40	70.3	70.3	70.3	84	65.2	0	0	---	0.00	29.929 
23:45	70.3	70.3	70.3	84	65.2	0	0	---	0.00	29.929 
23:50	70.1	70.1	70.1	84	65.0	0	0	---	0.00	29.929 
23:55	70.1	70.1	70.1	85	65.4	0	0	---	0.00	29.926 

CoCoRaHS
IN-AL-39
A2 Web Hosting
Creative Commons License
GoDaddy
Look for:

loaded 2017-10-17 09:25:43 • last modified 2010-11-18 10:43:29
Privacy PolicyDisclaimer
• wx.awcolley.com is powered by PmWiki v.2002016 •
• all content (unless otherwise noted) © 2017 A W Colley